createdAt,value
2019-04-07T00:08:09.227Z,13.20
2019-04-07T00:18:14.783Z,12.90
2019-04-07T00:28:20.500Z,12.60
2019-04-07T00:38:26.324Z,12.30
2019-04-07T00:48:32.103Z,12.00
2019-04-07T00:58:37.889Z,11.70
2019-04-07T01:08:43.738Z,11.60
2019-04-07T01:18:49.364Z,11.50
2019-04-07T01:28:55.281Z,11.30
2019-04-07T01:39:01.479Z,11.10
2019-04-07T01:49:24.877Z,10.80
2019-04-07T01:59:48.137Z,10.60
2019-04-07T02:10:11.845Z,10.30
2019-04-07T02:20:56.675Z,10.30
2019-04-07T02:31:30.433Z,10.10
2019-04-07T02:42:06.899Z,9.90
2019-04-07T02:52:34.489Z,9.80
2019-04-07T03:02:59.452Z,9.70
2019-04-07T03:13:30.284Z,9.50
2019-04-07T03:24:06.360Z,9.40
2019-04-07T03:34:23.356Z,9.30
2019-04-07T03:44:41.129Z,9.20
2019-04-07T03:55:24.531Z,9.10
2019-04-07T04:05:47.759Z,9.10
2019-04-07T04:15:58.728Z,9.10
2019-04-07T04:26:04.500Z,9.00
2019-04-07T04:36:09.897Z,8.80
2019-04-07T04:46:15.269Z,8.70
2019-04-07T04:56:20.839Z,8.70
2019-04-07T05:06:26.515Z,8.60
2019-04-07T05:16:32.124Z,8.50
2019-04-07T05:26:37.718Z,8.40
2019-04-07T05:36:43.332Z,8.30
2019-04-07T05:46:49.796Z,8.40
2019-04-07T05:56:58.719Z,8.70
2019-04-07T06:07:02.266Z,8.80
2019-04-07T06:17:07.610Z,9.20
2019-04-07T06:27:13.836Z,9.30
2019-04-07T06:37:19.972Z,9.60
2019-04-07T06:47:31.274Z,9.80
2019-04-07T06:57:56.194Z,10.10
2019-04-07T07:08:10.119Z,10.50
2019-04-07T07:18:34.582Z,10.80
2019-04-07T07:28:42.877Z,11.20
2019-04-07T07:38:56.901Z,11.50
2019-04-07T07:48:57.068Z,11.90
2019-04-07T07:59:01.604Z,12.20
2019-04-07T08:09:13.779Z,12.70
2019-04-07T08:19:15.605Z,13.10
2019-04-07T08:29:21.449Z,13.60
2019-04-07T08:39:31.585Z,14.10
2019-04-07T08:49:36.302Z,14.50
2019-04-07T08:59:42.978Z,15.10
2019-04-07T09:09:49.291Z,15.60
2019-04-07T09:20:26.793Z,16.10
2019-04-07T09:30:47.097Z,16.50
2019-04-07T09:41:10.968Z,17.00
2019-04-07T09:51:26.581Z,17.40
2019-04-07T10:01:55.056Z,17.70
2019-04-07T10:12:09.295Z,18.10
2019-04-07T10:22:21.658Z,18.40
2019-04-07T10:32:34.038Z,18.90
2019-04-07T10:42:55.334Z,19.40
2019-04-07T10:53:19.569Z,20.10
2019-04-07T11:03:41.408Z,21.90
2019-04-07T11:14:09.624Z,23.30
2019-04-07T11:24:37.137Z,24.60
2019-04-07T11:34:52.937Z,25.50
2019-04-07T11:45:06.916Z,25.50
2019-04-07T11:55:27.350Z,26.50
2019-04-07T12:05:48.421Z,27.10
2019-04-07T12:16:16.679Z,27.60
2019-04-07T12:26:43.776Z,27.80
2019-04-07T12:37:11.409Z,27.70
2019-04-07T12:47:27.615Z,28.20
2019-04-07T12:57:46.547Z,28.50
2019-04-07T13:08:00.515Z,29.20
2019-04-07T13:18:13.519Z,29.30
2019-04-07T13:28:33.230Z,29.60
2019-04-07T13:38:46.927Z,29.40
2019-04-07T13:49:11.820Z,29.70
2019-04-07T13:59:29.417Z,29.20
2019-04-07T14:09:46.314Z,29.00
2019-04-07T14:20:10.353Z,28.70
2019-04-07T14:30:35.448Z,28.60
2019-04-07T14:40:51.104Z,29.10
2019-04-07T14:51:16.291Z,29.70
2019-04-07T15:01:43.638Z,29.90
2019-04-07T15:12:15.897Z,31.20
2019-04-07T15:22:13.959Z,30.30
2019-04-07T15:32:24.523Z,31.00
2019-04-07T15:42:35.129Z,31.70
2019-04-07T15:52:34.729Z,30.70
2019-04-07T16:02:53.321Z,27.50
2019-04-07T16:12:59.447Z,25.40
2019-04-07T16:23:05.172Z,24.30
2019-04-07T16:33:10.792Z,23.70
2019-04-07T16:43:17.684Z,23.30
2019-04-07T16:53:23.255Z,22.80
2019-04-07T17:03:28.954Z,22.50
2019-04-07T17:13:39.819Z,22.20
2019-04-07T17:23:41.363Z,21.70
2019-04-07T17:33:47.100Z,21.40
2019-04-07T17:44:00.608Z,21.10
2019-04-07T17:54:31.039Z,20.90
2019-04-07T18:04:53.423Z,20.60
2019-04-07T18:15:19.257Z,20.50
2019-04-07T18:25:39.720Z,20.40
2019-04-07T18:36:03.295Z,20.10
2019-04-07T18:46:24.762Z,20.00
2019-04-07T18:57:01.401Z,19.90
2019-04-07T19:07:16.976Z,19.70
2019-04-07T19:17:34.941Z,19.50
2019-04-07T19:28:04.479Z,19.40
2019-04-07T19:38:27.432Z,19.20
2019-04-07T19:48:47.005Z,19.10
2019-04-07T19:59:00.826Z,19.10
2019-04-07T20:09:30.509Z,19.00
2019-04-07T20:20:00.676Z,18.80
2019-04-07T20:30:39.808Z,18.70
2019-04-07T20:40:57.536Z,18.50
2019-04-07T20:51:31.156Z,18.40
2019-04-07T21:02:03.457Z,18.30
2019-04-07T21:12:31.152Z,18.20
2019-04-07T21:22:48.711Z,18.10
2019-04-07T21:33:04.472Z,18.00
2019-04-07T21:43:47.185Z,18.00
2019-04-07T21:54:06.275Z,17.90
2019-04-07T22:04:30.140Z,17.70
2019-04-07T22:14:39.074Z,17.50
2019-04-07T22:24:44.279Z,17.40
2019-04-07T22:34:50.371Z,17.40
2019-04-07T22:44:56.041Z,17.30
2019-04-07T22:55:04.779Z,17.20
2019-04-07T23:05:09.287Z,17.10
2019-04-07T23:15:15.316Z,16.90
2019-04-07T23:25:22.657Z,17.00
2019-04-07T23:35:28.698Z,16.80
2019-04-07T23:45:35.736Z,16.60
2019-04-07T23:55:42.199Z,16.50
